EW5112 Weather Reports


Display with metric or nautical units.
time (UTC)temp
F
wind
direction
speed
MPH
gust
MPH
rain 1hr
in
rain 24hr
in
rain mn
in
humidity
%
barometer
mb
20180618224135 83 278 1.0 4.0 0.00 0.21 0.01 35 1016.1
20180618221135 81 210 1.0 4.0 0.00 0.21 0.01 36 1016.1
20180618214132 82 302 2.0 6.0 0.00 0.21 0.01 31 1016.3
20180618211133 81 326 3.0 6.0 0.00 0.21 0.01 32 1016.6
20180618204133 80 37 3.0 6.0 0.00 0.21 0.01 33 1016.8
20180618201133 80 352 1.0 4.0 0.00 0.21 0.01 40 1016.7
20180618194133 79 39 1.0 4.0 0.00 0.21 0.01 42 1017.0
20180618191133 78 307 0.0 3.0 0.00 0.21 0.01 48 1017.3
20180618184132 76 283 0.0 0.0 0.00 0.21 0.01 52 1017.4
20180618181133 74 323 0.0 0.0 0.00 0.21 0.01 57 1017.6
20180618174131 70 349 0.0 0.0 0.00 0.21 0.01 62 1017.6
20180618171131 65 335 0.0 0.0 0.00 0.21 0.01 72 1017.6
20180618164131 60 330 0.0 0.0 0.00 0.21 0.01 86 1017.8
20180618161129 56 236 0.0 0.0 0.00 0.21 0.01 94 1018.0
20180618154129 55 236 0.0 0.0 0.00 0.21 0.01 98 1018.1
20180618151129 53 152 0.0 0.0 0.00 0.21 0.01 98 1018.0
20180618144129 51 140 0.0 0.0 0.00 0.21 0.01 98 1017.9
20180618141129 48 134 0.0 0.0 0.00 0.21 0.01 98 1017.9
20180618134128 47 135 0.0 0.0 0.00 0.21 0.01 98 1017.7
20180618131129 47 133 0.0 0.0 0.00 0.21 0.01 98 1017.6
20180618124129 47 113 0.0 0.0 0.00 0.21 0.01 97 1017.3
20180618121134 47 112 0.0 0.0 0.01 0.21 0.01 97 1017.0
20180618114128 48 112 0.0 0.0 0.01 0.21 0.01 97 1016.5
20180618111129 48 110 0.0 0.0 0.00 0.20 0.00 97 1016.2
20180618104128 48 110 0.0 0.0 0.00 0.20 0.00 97 1016.1
20180618101128 49 103 0.0 0.0 0.00 0.20 0.00 97 1016.1
20180618094128 49 103 0.0 0.0 0.00 0.20 0.00 97 1015.9
20180618091140 50 103 0.0 0.0 0.00 0.20 0.00 97 1015.8
20180618084134 51 105 0.0 0.0 0.00 0.20 0.00 97 1015.9
20180618081126 51 104 0.0 0.0 0.00 0.20 0.00 97 1016.1
20180618074125 52 103 0.0 0.0 0.00 0.20 0.00 96 1016.1
20180618071122 53 103 0.0 1.0 0.00 0.20 0.00 96 1016.4
20180618064119 53 127 0.0 1.0 0.00 0.20 0.20 96 1016.3
20180618061119 54 236 0.0 1.0 0.00 0.20 0.20 96 1016.3
20180618054117 54 246 0.0 2.0 0.00 0.20 0.20 96 1016.1
20180618051115 55 188 1.0 2.0 0.00 0.20 0.20 95 1016.2
20180618044116 56 129 0.0 1.0 0.00 0.20 0.20 96 1015.9
20180618041114 56 129 0.0 3.0 0.00 0.20 0.20 95 1015.3
20180618034114 56 160 0.0 2.0 0.01 0.20 0.20 94 1015.1
20180618031114 57 142 1.0 4.0 0.10 0.20 0.20 90 1015.0
20180618024113 58 138 1.0 12.0 0.19 0.19 0.19 91 1015.2
20180618021112 60 19 9.0 20.0 0.10 0.10 0.10 81 1014.2
20180618014109 76 23 1.0 3.0 0.00 0.00 0.00 38 1011.5
20180618011109 78 332 2.0 5.0 0.00 0.00 0.00 37 1011.3
20180618004108 80 295 2.0 3.0 0.00 0.00 0.00 35 1011.4
20180618001108 78 328 2.0 6.0 0.00 0.00 0.00 38 1011.7
20180617234107 77 353 1.0 7.0 0.00 0.00 0.00 38 1011.8
20180617231107 75 18 1.0 5.0 0.00 0.00 0.00 42 1012.0